createdAt,value
2023-03-26T08:39:15.884Z,8.86
2023-03-26T09:01:13.337Z,9.01
2023-03-26T09:01:47.534Z,8.94
2023-03-26T09:02:47.668Z,8.97
2023-03-26T09:03:47.676Z,9.05
2023-03-26T09:04:47.409Z,9.04
2023-03-26T09:05:47.435Z,9.21
2023-03-26T09:06:47.489Z,9.25
2023-03-26T09:07:47.358Z,9.39
2023-03-26T09:08:53.843Z,9.38
2023-03-26T09:09:48.353Z,9.27
2023-03-26T09:10:47.418Z,9.32
2023-03-26T09:11:47.411Z,9.30
2023-03-26T09:12:47.268Z,9.49
2023-03-26T09:14:08.085Z,9.46
2023-03-26T09:14:47.295Z,9.50
2023-03-26T09:15:47.486Z,9.43
2023-03-26T09:16:47.394Z,9.46
2023-03-26T09:17:47.477Z,9.40
2023-03-26T09:18:47.332Z,9.53
2023-03-26T09:19:47.364Z,9.64
2023-03-26T09:20:47.369Z,9.56
2023-03-26T09:21:47.402Z,9.57
2023-03-26T09:22:47.450Z,9.58
2023-03-26T09:23:47.420Z,9.46
2023-03-26T09:24:47.318Z,9.52
2023-03-26T09:25:47.355Z,9.52
2023-03-26T09:26:47.271Z,9.46
2023-03-26T09:27:47.223Z,9.40
2023-03-26T09:28:47.276Z,9.43
2023-03-26T09:29:47.250Z,9.45
2023-03-26T09:30:47.227Z,9.48
2023-03-26T09:31:47.401Z,9.57
2023-03-26T09:32:47.277Z,9.56
2023-03-26T09:33:47.267Z,9.43
2023-03-26T09:34:47.302Z,9.48
2023-03-26T09:35:47.220Z,9.40
2023-03-26T09:36:47.810Z,9.35
2023-03-26T09:37:56.420Z,9.34
2023-03-26T09:38:48.365Z,9.31
2023-03-26T09:41:40.580Z,9.35
2023-03-26T09:42:42.063Z,9.21
2023-03-26T09:43:42.013Z,9.27
2023-03-26T09:44:42.262Z,9.34
2023-03-26T09:45:42.165Z,9.50
2023-03-26T09:46:41.852Z,9.45
2023-03-26T09:47:41.846Z,9.30
2023-03-26T09:48:42.732Z,9.34
2023-03-26T09:49:41.793Z,9.21
2023-03-26T09:50:41.612Z,9.27
2023-03-26T09:51:41.740Z,9.46
2023-03-26T09:52:41.681Z,9.43
2023-03-26T09:53:41.652Z,9.66
2023-03-26T09:54:41.623Z,9.68
2023-03-26T09:56:02.127Z,9.70
2023-03-26T09:56:41.646Z,9.78
2023-03-26T09:57:41.795Z,9.75
2023-03-26T10:37:39.948Z,9.71
2023-03-26T10:38:41.154Z,9.64
2023-03-26T10:39:41.627Z,9.58
2023-03-26T10:40:40.087Z,9.39
2023-03-26T10:41:40.686Z,9.40
2023-03-26T10:42:40.070Z,9.32
2023-03-26T10:43:39.974Z,9.05
2023-03-26T10:44:39.981Z,8.94
2023-03-26T10:45:40.158Z,8.72
2023-03-26T10:46:40.280Z,8.58
2023-03-26T10:47:40.750Z,8.48
2023-03-26T10:48:39.999Z,8.58
2023-03-26T10:49:40.519Z,8.71
2023-03-26T10:50:40.289Z,8.65
2023-03-26T10:51:40.399Z,8.62
2023-03-26T10:52:40.005Z,8.58
2023-03-26T10:53:40.223Z,8.71
2023-03-26T10:54:40.227Z,8.76
2023-03-26T10:55:40.248Z,8.75
2023-03-26T11:50:58.724Z,7.90
2023-03-26T11:51:30.858Z,7.79
2023-03-26T11:52:30.806Z,7.75
2023-03-26T11:53:31.206Z,7.60
2023-03-26T11:54:31.117Z,7.71
2023-03-26T11:55:44.545Z,7.78
2023-03-26T11:56:31.724Z,7.89
2023-03-26T11:57:31.228Z,7.89
2023-03-26T11:58:31.984Z,7.92
2023-03-26T11:59:32.690Z,7.94
2023-03-26T12:00:45.736Z,7.96
2023-03-26T12:01:32.437Z,8.07
2023-03-26T12:02:31.213Z,7.94
2023-03-26T12:03:33.213Z,8.04
2023-03-26T12:04:32.305Z,8.18
2023-03-26T12:05:31.971Z,8.33
2023-03-26T12:06:31.007Z,8.35
2023-03-26T12:07:31.093Z,8.25
2023-03-26T12:08:30.874Z,8.21
2023-03-26T12:09:30.672Z,8.25
2023-03-26T12:10:30.736Z,8.39
2023-03-26T15:31:02.442Z,10.19
2023-03-26T15:31:10.371Z,10.12
2023-03-26T15:32:04.845Z,10.15
2023-03-26T15:33:05.035Z,10.10
2023-03-26T15:34:04.885Z,10.03
2023-03-26T15:35:04.989Z,10.15
2023-03-26T15:36:05.229Z,10.12
2023-03-26T15:37:04.799Z,10.19
2023-03-26T15:38:04.714Z,10.09
2023-03-26T15:39:04.802Z,10.15
2023-03-26T15:40:04.967Z,10.15
2023-03-26T15:41:04.892Z,10.01
2023-03-26T15:42:04.611Z,10.21
2023-03-26T15:43:04.701Z,10.17
2023-03-26T15:44:23.680Z,10.15
2023-03-26T15:45:06.703Z,10.12
2023-03-26T15:46:04.975Z,10.04
2023-03-26T15:47:04.709Z,9.93
2023-03-26T15:48:04.934Z,10.03
2023-03-26T15:49:04.787Z,9.97
2023-03-26T15:50:04.841Z,9.91
2023-03-26T15:51:04.345Z,9.89
2023-03-26T15:52:04.776Z,9.93
2023-03-26T15:53:04.677Z,9.91
2023-03-26T15:54:04.673Z,9.82
2023-03-26T15:55:04.614Z,9.86
2023-03-26T15:56:04.782Z,9.85
2023-03-26T15:57:04.831Z,9.73
2023-03-26T15:58:04.947Z,9.71
2023-03-26T15:59:04.597Z,9.70
2023-03-26T16:00:04.699Z,9.75
2023-03-26T16:01:04.904Z,9.71
2023-03-26T16:02:04.572Z,9.70
2023-03-26T16:03:05.082Z,9.71
2023-03-26T16:04:04.761Z,9.64
2023-03-26T16:05:04.705Z,9.52
2023-03-26T16:06:04.755Z,9.52
2023-03-26T16:07:04.450Z,9.52
2023-03-26T16:08:04.719Z,9.56
2023-03-26T16:09:04.943Z,9.52
2023-03-26T16:10:04.643Z,9.43
2023-03-26T16:11:04.993Z,9.43
2023-03-26T16:12:04.825Z,9.45
2023-03-26T16:13:04.574Z,9.35
2023-03-26T16:14:04.833Z,9.38
2023-03-26T16:15:04.635Z,9.34
2023-03-26T16:16:04.619Z,9.39
2023-03-26T16:17:04.471Z,9.35
2023-03-26T16:18:04.667Z,9.45
2023-03-26T16:19:05.361Z,9.45
2023-03-26T16:20:04.531Z,9.40
2023-03-26T16:21:04.461Z,9.43
2023-03-26T16:22:04.355Z,9.38
2023-03-26T16:23:04.303Z,9.30
2023-03-26T16:24:04.576Z,9.31
2023-03-26T16:25:26.599Z,9.35
2023-03-26T16:26:05.435Z,9.34
2023-03-26T16:27:04.907Z,9.34
2023-03-26T16:28:04.557Z,9.38
2023-03-26T16:30:04.433Z,9.40
2023-03-26T16:31:05.221Z,9.40
2023-03-26T16:32:05.390Z,9.38
2023-03-26T16:33:04.454Z,9.32
2023-03-26T16:34:04.502Z,9.40
2023-03-26T16:35:04.488Z,9.32
2023-03-26T16:36:04.783Z,9.42
2023-03-26T16:37:04.544Z,9.31
2023-03-26T16:38:04.546Z,9.31
2023-03-26T16:39:04.737Z,9.21
2023-03-26T16:40:04.608Z,9.10
2023-03-26T16:41:04.425Z,9.15
2023-03-26T16:42:06.294Z,9.20
2023-03-26T16:43:04.612Z,8.93
2023-03-26T16:49:31.966Z,9.01
2023-03-26T16:50:33.576Z,8.94
2023-03-26T16:51:33.447Z,9.02
2023-03-26T16:52:33.527Z,9.09
2023-03-26T16:53:33.901Z,8.96
2023-03-26T16:54:36.872Z,8.94
2023-03-26T16:55:34.566Z,8.97
2023-03-26T16:56:33.609Z,8.97
2023-03-26T16:57:33.925Z,8.99
2023-03-26T16:58:33.842Z,9.09
2023-03-26T16:59:34.515Z,9.04
2023-03-26T17:00:33.619Z,8.99
2023-03-26T17:01:33.638Z,9.04
2023-03-26T17:02:33.447Z,9.04
2023-03-26T17:03:33.512Z,8.97
2023-03-26T17:04:33.747Z,8.90
2023-03-26T17:05:33.429Z,8.84
2023-03-26T17:06:33.349Z,8.73
2023-03-26T17:07:33.589Z,8.76
2023-03-26T17:08:36.446Z,8.72
2023-03-26T17:09:33.879Z,8.72
2023-03-26T17:10:33.680Z,8.63
2023-03-26T17:11:33.399Z,8.65
2023-03-26T17:12:34.527Z,8.57
2023-03-26T17:13:33.573Z,8.63
2023-03-26T17:14:33.530Z,8.42
2023-03-26T17:15:34.637Z,8.39
2023-03-26T17:16:33.503Z,8.44
2023-03-26T17:17:33.467Z,8.44
2023-03-26T17:18:33.537Z,8.28
2023-03-26T17:19:33.462Z,8.26
2023-03-26T17:20:33.592Z,8.21
2023-03-26T17:21:45.887Z,8.20
2023-03-26T17:22:34.394Z,8.26
2023-03-26T17:23:33.326Z,8.17
2023-03-26T17:24:33.228Z,8.20
2023-03-26T17:25:33.230Z,8.15
2023-03-26T17:26:33.573Z,8.21
2023-03-26T17:27:33.353Z,8.15
2023-03-26T17:28:33.313Z,8.08
2023-03-26T17:29:34.201Z,8.11
2023-03-26T17:30:33.335Z,8.14
2023-03-26T17:31:33.791Z,8.11
2023-03-26T17:32:33.290Z,8.12
2023-03-26T17:33:34.603Z,8.03
2023-03-26T17:34:33.398Z,8.14
2023-03-26T17:35:33.367Z,8.07
2023-03-26T17:36:34.490Z,8.10
2023-03-26T17:37:33.262Z,8.04
2023-03-26T17:38:33.105Z,8.04
2023-03-26T17:39:33.226Z,7.89
2023-03-26T17:40:33.209Z,7.99
2023-03-26T17:41:33.283Z,7.89
2023-03-26T17:42:33.525Z,7.93
2023-03-26T17:43:33.283Z,7.94
2023-03-26T17:44:33.231Z,7.93
2023-03-26T17:45:33.242Z,7.99
2023-03-26T17:46:33.365Z,8.08
2023-03-26T17:47:33.260Z,7.94
2023-03-26T17:48:33.201Z,8.07
2023-03-26T17:49:33.742Z,8.08
2023-03-26T19:56:21.975Z,6.59
2023-03-26T19:57:23.348Z,6.63
2023-03-26T19:58:23.625Z,6.63
2023-03-26T19:59:23.066Z,6.65
2023-03-26T20:00:23.165Z,6.54
2023-03-26T20:01:23.372Z,6.53
2023-03-26T20:02:23.040Z,6.63
2023-03-26T20:03:23.402Z,6.59
2023-03-26T20:04:23.071Z,6.51
2023-03-26T20:05:24.068Z,6.51
2023-03-26T20:06:28.148Z,6.40
2023-03-26T20:07:35.674Z,6.38
2023-03-26T20:08:24.104Z,6.36
2023-03-26T20:09:23.200Z,6.38
2023-03-26T20:10:22.937Z,6.38
2023-03-26T20:11:23.074Z,6.38
2023-03-26T20:12:24.592Z,6.26
2023-03-26T20:13:23.118Z,6.28
2023-03-26T20:14:24.078Z,6.11
2023-03-26T20:15:23.030Z,6.13
2023-03-26T20:16:23.206Z,6.10
2023-03-26T20:17:22.930Z,6.07
2023-03-26T20:18:23.346Z,6.07
2023-03-26T20:19:30.427Z,6.04
2023-03-26T20:20:22.861Z,5.91
2023-03-26T20:21:23.019Z,6.03
2023-03-26T20:22:22.954Z,5.95
2023-03-26T20:23:27.139Z,6.01
2023-03-26T20:24:22.963Z,5.78
2023-03-26T20:25:23.131Z,5.89
2023-03-26T20:26:30.274Z,5.71
2023-03-26T20:27:22.960Z,5.73
2023-03-26T20:28:23.041Z,5.82
2023-03-26T20:29:22.911Z,5.78
2023-03-26T21:00:21.275Z,5.35
2023-03-26T21:01:02.622Z,5.40
2023-03-26T21:02:02.453Z,5.35
2023-03-26T21:03:02.273Z,5.32
2023-03-26T21:04:04.280Z,5.37
2023-03-26T21:05:02.098Z,5.37
2023-03-26T21:28:05.419Z,5.25
2023-03-26T21:28:42.260Z,5.13
2023-03-26T21:29:39.443Z,5.30
2023-03-26T21:30:37.209Z,5.25
2023-03-26T21:31:37.457Z,5.23
2023-03-26T21:32:37.491Z,5.31
2023-03-26T21:45:56.448Z,5.19
2023-03-26T21:46:53.400Z,5.23
